sensor_id;sensor_type;location;lat;lon;timestamp;pressure;altitude;pressure_sealevel;temperature;humidity
68137;BME280;54939;50.826;9.030;2023-11-21T00:00:07;98048.72;;;10.29;72.81
68137;BME280;54939;50.826;9.030;2023-11-21T00:00:41;98056.72;;;10.29;72.64
68137;BME280;54939;50.826;9.030;2023-11-21T00:01:11;98049.53;;;10.29;72.72
68137;BME280;54939;50.826;9.030;2023-11-21T00:01:42;98046.03;;;10.29;72.63
68137;BME280;54939;50.826;9.030;2023-11-21T00:02:12;98046.88;;;10.29;72.72
68137;BME280;54939;50.826;9.030;2023-11-21T00:02:43;98047.72;;;10.30;72.68
68137;BME280;54939;50.826;9.030;2023-11-21T00:03:13;98045.88;;;10.30;72.75
68137;BME280;54939;50.826;9.030;2023-11-21T00:03:45;98048.72;;;10.29;72.67
68137;BME280;54939;50.826;9.030;2023-11-21T00:04:15;98048.88;;;10.27;72.67
68137;BME280;54939;50.826;9.030;2023-11-21T00:04:45;98046.19;;;10.27;72.81
68137;BME280;54939;50.826;9.030;2023-11-21T00:05:15;98046.19;;;10.27;72.74
68137;BME280;54939;50.826;9.030;2023-11-21T00:05:46;98047.19;;;10.26;72.68
68137;BME280;54939;50.826;9.030;2023-11-21T00:06:16;98054.19;;;10.27;72.76
68137;BME280;54939;50.826;9.030;2023-11-21T00:06:46;98056.88;;;10.27;72.73
68137;BME280;54939;50.826;9.030;2023-11-21T00:07:17;98051.53;;;10.27;72.66
68137;BME280;54939;50.826;9.030;2023-11-21T00:07:47;98049.69;;;10.27;72.69
68137;BME280;54939;50.826;9.030;2023-11-21T00:08:17;98055.03;;;10.27;72.62
68137;BME280;54939;50.826;9.030;2023-11-21T00:08:47;98055.88;;;10.28;72.66
68137;BME280;54939;50.826;9.030;2023-11-21T00:09:17;98054.19;;;10.27;72.75
68137;BME280;54939;50.826;9.030;2023-11-21T00:09:48;98053.38;;;10.26;72.99
68137;BME280;54939;50.826;9.030;2023-11-21T00:10:18;98054.19;;;10.27;72.75
68137;BME280;54939;50.826;9.030;2023-11-21T00:10:49;98048.88;;;10.27;72.81
68137;BME280;54939;50.826;9.030;2023-11-21T00:11:19;98056.88;;;10.27;72.71
68137;BME280;54939;50.826;9.030;2023-11-21T00:11:49;98051.38;;;10.29;72.94
68137;BME280;54939;50.826;9.030;2023-11-21T00:12:19;98050.88;;;10.25;72.79
68137;BME280;54939;50.826;9.030;2023-11-21T00:12:50;98053.22;;;10.28;72.63
68137;BME280;54939;50.826;9.030;2023-11-21T00:13:21;98057.72;;;10.27;72.73
68137;BME280;54939;50.826;9.030;2023-11-21T00:13:51;98054.19;;;10.27;72.73
68137;BME280;54939;50.826;9.030;2023-11-21T00:14:21;98049.69;;;10.27;72.72
68137;BME280;54939;50.826;9.030;2023-11-21T00:14:51;98055.03;;;10.27;72.66
68137;BME280;54939;50.826;9.030;2023-11-21T00:15:22;98051.53;;;10.27;72.89
68137;BME280;54939;50.826;9.030;2023-11-21T00:15:52;98055.03;;;10.27;72.75
68137;BME280;54939;50.826;9.030;2023-11-21T00:16:22;98053.38;;;10.26;72.39
68137;BME280;54939;50.826;9.030;2023-11-21T00:16:53;98051.53;;;10.27;72.52
68137;BME280;54939;50.826;9.030;2023-11-21T00:17:23;98051.53;;;10.27;72.66
68137;BME280;54939;50.826;9.030;2023-11-21T00:17:54;98050.69;;;10.26;72.58
68137;BME280;54939;50.826;9.030;2023-11-21T00:18:24;98055.19;;;10.26;72.56
68137;BME280;54939;50.826;9.030;2023-11-21T00:18:54;98052.38;;;10.27;72.58
68137;BME280;54939;50.826;9.030;2023-11-21T00:19:24;98054.19;;;10.27;72.80
68137;BME280;54939;50.826;9.030;2023-11-21T00:19:55;98048.88;;;10.27;72.75
68137;BME280;54939;50.826;9.030;2023-11-21T00:20:25;98056.88;;;10.27;72.57
68137;BME280;54939;50.826;9.030;2023-11-21T00:20:55;98046.19;;;10.27;72.61
68137;BME280;54939;50.826;9.030;2023-11-21T00:21:25;98045.38;;;10.26;72.67
68137;BME280;54939;50.826;9.030;2023-11-21T00:21:55;98049.69;;;10.27;72.61
68137;BME280;54939;50.826;9.030;2023-11-21T00:22:28;98043.53;;;10.27;72.63
68137;BME280;54939;50.826;9.030;2023-11-21T00:22:58;98043.53;;;10.27;72.82
68137;BME280;54939;50.826;9.030;2023-11-21T00:23:29;98046.19;;;10.27;72.66
68137;BME280;54939;50.826;9.030;2023-11-21T00:23:59;98045.38;;;10.26;72.70
68137;BME280;54939;50.826;9.030;2023-11-21T00:24:29;98045.38;;;10.26;72.64
68137;BME280;54939;50.826;9.030;2023-11-21T00:25:00;98048.03;;;10.26;72.60
68137;BME280;54939;50.826;9.030;2023-11-21T00:25:30;98049.88;;;10.26;72.51
68137;BME280;54939;50.826;9.030;2023-11-21T00:26:01;98050.69;;;10.26;72.74
68137;BME280;54939;50.826;9.030;2023-11-21T00:26:31;98050.69;;;10.26;72.63
68137;BME280;54939;50.826;9.030;2023-11-21T00:27:06;98051.53;;;10.27;72.67
68137;BME280;54939;50.826;9.030;2023-11-21T00:27:36;98050.69;;;10.26;72.59
68137;BME280;54939;50.826;9.030;2023-11-21T00:28:07;98050.69;;;10.26;72.77
68137;BME280;54939;50.826;9.030;2023-11-21T00:28:37;98051.53;;;10.27;72.98
68137;BME280;54939;50.826;9.030;2023-11-21T00:29:07;98046.19;;;10.27;72.60
68137;BME280;54939;50.826;9.030;2023-11-21T00:29:38;98055.03;;;10.27;72.73
68137;BME280;54939;50.826;9.030;2023-11-21T00:30:08;98056.88;;;10.27;72.74
68137;BME280;54939;50.826;9.030;2023-11-21T00:30:38;98056.03;;;10.26;72.66
68137;BME280;54939;50.826;9.030;2023-11-21T00:31:09;98049.03;;;10.25;72.71
68137;BME280;54939;50.826;9.030;2023-11-21T00:31:39;98056.03;;;10.26;72.85
68137;BME280;54939;50.826;9.030;2023-11-21T00:32:09;98056.88;;;10.27;72.80
68137;BME280;54939;50.826;9.030;2023-11-21T00:32:39;98051.53;;;10.27;72.80
68137;BME280;54939;50.826;9.030;2023-11-21T00:33:09;98056.88;;;10.27;72.61
68137;BME280;54939;50.826;9.030;2023-11-21T00:33:40;98062.22;;;10.27;72.60
68137;BME280;54939;50.826;9.030;2023-11-21T00:34:13;98058.69;;;10.26;72.66
68137;BME280;54939;50.826;9.030;2023-11-21T00:34:43;98056.88;;;10.27;72.52
68137;BME280;54939;50.826;9.030;2023-11-21T00:35:14;98065.72;;;10.27;72.88
68137;BME280;54939;50.826;9.030;2023-11-21T00:35:44;98063.03;;;10.27;72.53
68137;BME280;54939;50.826;9.030;2023-11-21T00:36:14;98059.53;;;10.27;72.62
68137;BME280;54939;50.826;9.030;2023-11-21T00:36:44;98064.88;;;10.27;72.93
68137;BME280;54939;50.826;9.030;2023-11-21T00:37:14;98061.06;;;10.30;72.70
68137;BME280;54939;50.826;9.030;2023-11-21T00:37:44;98063.88;;;10.28;72.62
68137;BME280;54939;50.826;9.030;2023-11-21T00:38:15;98062.22;;;10.27;72.68
68137;BME280;54939;50.826;9.030;2023-11-21T00:38:45;98058.53;;;10.28;72.73
68137;BME280;54939;50.826;9.030;2023-11-21T00:39:15;98055.03;;;10.27;72.78
68137;BME280;54939;50.826;9.030;2023-11-21T00:39:45;98056.72;;;10.29;72.64
68137;BME280;54939;50.826;9.030;2023-11-21T00:40:15;98054.03;;;10.29;72.74
68137;BME280;54939;50.826;9.030;2023-11-21T00:40:49;98058.53;;;10.28;72.77
68137;BME280;54939;50.826;9.030;2023-11-21T00:41:19;98055.88;;;10.28;72.70
68137;BME280;54939;50.826;9.030;2023-11-21T00:41:49;98054.88;;;10.29;72.66
68137;BME280;54939;50.826;9.030;2023-11-21T00:42:19;98055.88;;;10.28;72.53
68137;BME280;54939;50.826;9.030;2023-11-21T00:42:51;98060.22;;;10.29;72.78
68137;BME280;54939;50.826;9.030;2023-11-21T00:43:22;98057.53;;;10.29;72.58
68137;BME280;54939;50.826;9.030;2023-11-21T00:43:53;98058.53;;;10.28;72.44
68137;BME280;54939;50.826;9.030;2023-11-21T00:44:23;98056.88;;;10.27;72.67
68137;BME280;54939;50.826;9.030;2023-11-21T00:44:53;98054.19;;;10.27;72.61
68137;BME280;54939;50.826;9.030;2023-11-21T00:45:23;98054.19;;;10.27;72.51
68137;BME280;54939;50.826;9.030;2023-11-21T00:45:53;98055.03;;;10.27;72.53
68137;BME280;54939;50.826;9.030;2023-11-21T00:46:24;98056.88;;;10.27;72.55
68137;BME280;54939;50.826;9.030;2023-11-21T00:46:56;98050.69;;;10.26;72.67
68137;BME280;54939;50.826;9.030;2023-11-21T00:47:27;98051.53;;;10.27;72.68
68137;BME280;54939;50.826;9.030;2023-11-21T00:47:57;98054.19;;;10.27;72.47
68137;BME280;54939;50.826;9.030;2023-11-21T00:48:28;98056.88;;;10.27;72.76
68137;BME280;54939;50.826;9.030;2023-11-21T00:48:58;98055.03;;;10.27;72.79
68137;BME280;54939;50.826;9.030;2023-11-21T00:49:28;98057.72;;;10.27;72.66
68137;BME280;54939;50.826;9.030;2023-11-21T00:49:58;98052.38;;;10.27;72.83
68137;BME280;54939;50.826;9.030;2023-11-21T00:50:29;98054.19;;;10.27;72.84
68137;BME280;54939;50.826;9.030;2023-11-21T00:50:59;98055.88;;;10.28;72.68
68137;BME280;54939;50.826;9.030;2023-11-21T00:51:30;98054.19;;;10.27;72.54
68137;BME280;54939;50.826;9.030;2023-11-21T00:52:00;98057.72;;;10.27;72.60
68137;BME280;54939;50.826;9.030;2023-11-21T00:52:30;98063.03;;;10.27;72.63
68137;BME280;54939;50.826;9.030;2023-11-21T00:53:00;98057.72;;;10.27;72.50
68137;BME280;54939;50.826;9.030;2023-11-21T00:53:32;98063.88;;;10.28;72.68
68137;BME280;54939;50.826;9.030;2023-11-21T00:54:02;98063.88;;;10.28;72.63
68137;BME280;54939;50.826;9.030;2023-11-21T00:54:32;98060.38;;;10.27;72.62
68137;BME280;54939;50.826;9.030;2023-11-21T00:55:06;98063.88;;;10.28;72.70
68137;BME280;54939;50.826;9.030;2023-11-21T00:55:37;98068.38;;;10.27;72.68
68137;BME280;54939;50.826;9.030;2023-11-21T00:56:10;98069.22;;;10.28;72.71
68137;BME280;54939;50.826;9.030;2023-11-21T00:56:40;98057.03;;;10.25;72.67
68137;BME280;54939;50.826;9.030;2023-11-21T00:57:10;98061.38;;;10.26;72.71
68137;BME280;54939;50.826;9.030;2023-11-21T00:57:41;98065.88;;;10.26;72.57
68137;BME280;54939;50.826;9.030;2023-11-21T00:58:12;98062.22;;;10.27;72.70
68137;BME280;54939;50.826;9.030;2023-11-21T00:58:42;98058.69;;;10.26;72.62
68137;BME280;54939;50.826;9.030;2023-11-21T00:59:16;98064.88;;;10.27;72.75
68137;BME280;54939;50.826;9.030;2023-11-21T00:59:46;98069.22;;;10.28;72.74
68137;BME280;54939;50.826;9.030;2023-11-21T01:00:16;98060.38;;;10.27;72.51
68137;BME280;54939;50.826;9.030;2023-11-21T01:00:47;98062.03;;;10.29;72.78
68137;BME280;54939;50.826;9.030;2023-11-21T01:01:18;98062.03;;;10.29;72.52
68137;BME280;54939;50.826;9.030;2023-11-21T01:01:49;98059.38;;;10.29;72.46
68137;BME280;54939;50.826;9.030;2023-11-21T01:02:19;98067.53;;;10.27;72.61
68137;BME280;54939;50.826;9.030;2023-11-21T01:02:49;98065.72;;;10.27;72.56
68137;BME280;54939;50.826;9.030;2023-11-21T01:03:19;98058.53;;;10.28;72.65
68137;BME280;54939;50.826;9.030;2023-11-21T01:03:49;98057.72;;;10.27;72.53
68137;BME280;54939;50.826;9.030;2023-11-21T01:04:20;98057.72;;;10.27;72.60
68137;BME280;54939;50.826;9.030;2023-11-21T01:04:50;98063.03;;;10.27;72.58
68137;BME280;54939;50.826;9.030;2023-11-21T01:05:20;98057.72;;;10.27;72.47
68137;BME280;54939;50.826;9.030;2023-11-21T01:05:50;98054.19;;;10.27;72.51
68137;BME280;54939;50.826;9.030;2023-11-21T01:06:21;98059.53;;;10.27;72.51
68137;BME280;54939;50.826;9.030;2023-11-21T01:06:51;98059.53;;;10.27;72.72
68137;BME280;54939;50.826;9.030;2023-11-21T01:07:21;98054.19;;;10.27;72.41
68137;BME280;54939;50.826;9.030;2023-11-21T01:07:52;98061.38;;;10.26;72.63
68137;BME280;54939;50.826;9.030;2023-11-21T01:08:22;98061.38;;;10.26;72.56
68137;BME280;54939;50.826;9.030;2023-11-21T01:08:54;98064.88;;;10.27;72.64
68137;BME280;54939;50.826;9.030;2023-11-21T01:09:24;98062.22;;;10.27;72.56
68137;BME280;54939;50.826;9.030;2023-11-21T01:09:54;98062.22;;;10.27;72.56
68137;BME280;54939;50.826;9.030;2023-11-21T01:10:26;98059.53;;;10.27;72.63
68137;BME280;54939;50.826;9.030;2023-11-21T01:10:56;98059.53;;;10.27;72.51
68137;BME280;54939;50.826;9.030;2023-11-21T01:11:26;98063.03;;;10.27;72.51
68137;BME280;54939;50.826;9.030;2023-11-21T01:11:56;98064.88;;;10.27;72.68
68137;BME280;54939;50.826;9.030;2023-11-21T01:12:27;98071.88;;;10.28;72.46
68137;BME280;54939;50.826;9.030;2023-11-21T01:12:57;98069.38;;;10.26;72.66
68137;BME280;54939;50.826;9.030;2023-11-21T01:13:27;98069.38;;;10.26;72.78
68137;BME280;54939;50.826;9.030;2023-11-21T01:13:58;98065.72;;;10.27;72.63
68137;BME280;54939;50.826;9.030;2023-11-21T01:14:29;98075.38;;;10.29;72.79
68137;BME280;54939;50.826;9.030;2023-11-21T01:15:00;98071.03;;;10.27;72.74
68137;BME280;54939;50.826;9.030;2023-11-21T01:15:30;98076.22;;;10.29;72.60
68137;BME280;54939;50.826;9.030;2023-11-21T01:16:00;98071.88;;;10.28;72.51
68137;BME280;54939;50.826;9.030;2023-11-21T01:16:30;98077.38;;;10.26;72.62
68137;BME280;54939;50.826;9.030;2023-11-21T01:17:02;98076.53;;;10.26;72.64
68137;BME280;54939;50.826;9.030;2023-11-21T01:17:34;98083.53;;;10.27;72.65
68137;BME280;54939;50.826;9.030;2023-11-21T01:18:04;98080.88;;;10.27;72.58
68137;BME280;54939;50.826;9.030;2023-11-21T01:18:35;98088.88;;;10.27;72.55
68137;BME280;54939;50.826;9.030;2023-11-21T01:19:05;98083.53;;;10.27;72.76
68137;BME280;54939;50.826;9.030;2023-11-21T01:19:35;98085.22;;;10.28;72.76
68137;BME280;54939;50.826;9.030;2023-11-21T01:20:06;98083.53;;;10.27;72.53
68137;BME280;54939;50.826;9.030;2023-11-21T01:20:41;98081.72;;;10.27;72.60
68137;BME280;54939;50.826;9.030;2023-11-21T01:21:11;98089.72;;;10.27;72.71
68137;BME280;54939;50.826;9.030;2023-11-21T01:21:42;98079.88;;;10.28;72.62
68137;BME280;54939;50.826;9.030;2023-11-21T01:22:12;98081.72;;;10.27;72.71
68137;BME280;54939;50.826;9.030;2023-11-21T01:22:42;98080.72;;;10.29;72.50
68137;BME280;54939;50.826;9.030;2023-11-21T01:23:13;98079.03;;;10.27;72.52
68137;BME280;54939;50.826;9.030;2023-11-21T01:23:43;98088.56;;;10.30;72.72
68137;BME280;54939;50.826;9.030;2023-11-21T01:24:13;98086.88;;;10.29;72.59
68137;BME280;54939;50.826;9.030;2023-11-21T01:24:43;98082.56;;;10.28;72.40
68137;BME280;54939;50.826;9.030;2023-11-21T01:25:14;98080.03;;;10.26;72.64
68137;BME280;54939;50.826;9.030;2023-11-21T01:25:44;98080.03;;;10.26;72.45
68137;BME280;54939;50.826;9.030;2023-11-21T01:26:15;98081.88;;;10.26;72.52
68137;BME280;54939;50.826;9.030;2023-11-21T01:26:45;98081.88;;;10.26;72.55
68137;BME280;54939;50.826;9.030;2023-11-21T01:27:16;98087.22;;;10.26;72.68
68137;BME280;54939;50.826;9.030;2023-11-21T01:27:47;98077.53;;;10.25;72.50
68137;BME280;54939;50.826;9.030;2023-11-21T01:28:17;98076.53;;;10.26;72.65
68137;BME280;54939;50.826;9.030;2023-11-21T01:28:47;98084.53;;;10.26;72.68
68137;BME280;54939;50.826;9.030;2023-11-21T01:29:19;98085.38;;;10.26;72.46
68137;BME280;54939;50.826;9.030;2023-11-21T01:29:50;98084.53;;;10.26;72.49
68137;BME280;54939;50.826;9.030;2023-11-21T01:30:23;98088.03;;;10.26;72.50
68137;BME280;54939;50.826;9.030;2023-11-21T01:30:53;98083.72;;;10.25;72.60
68137;BME280;54939;50.826;9.030;2023-11-21T01:31:26;98088.22;;;10.25;72.52
68137;BME280;54939;50.826;9.030;2023-11-21T01:31:59;98080.03;;;10.26;72.63
68137;BME280;54939;50.826;9.030;2023-11-21T01:32:29;98081.88;;;10.26;72.67
68137;BME280;54939;50.826;9.030;2023-11-21T01:32:59;98087.22;;;10.26;72.59
68137;BME280;54939;50.826;9.030;2023-11-21T01:33:29;98084.53;;;10.26;72.56
68137;BME280;54939;50.826;9.030;2023-11-21T01:34:00;98086.38;;;10.25;72.60
68137;BME280;54939;50.826;9.030;2023-11-21T01:34:30;98088.22;;;10.25;72.69
68137;BME280;54939;50.826;9.030;2023-11-21T01:35:00;98088.22;;;10.25;72.59
68137;BME280;54939;50.826;9.030;2023-11-21T01:35:30;98089.88;;;10.26;72.65
68137;BME280;54939;50.826;9.030;2023-11-21T01:36:01;98093.38;;;10.26;72.58
68137;BME280;54939;50.826;9.030;2023-11-21T01:36:31;98089.03;;;10.25;72.86
68137;BME280;54939;50.826;9.030;2023-11-21T01:37:05;98088.88;;;10.27;72.70
68137;BME280;54939;50.826;9.030;2023-11-21T01:37:36;98086.38;;;10.25;72.78
68137;BME280;54939;50.826;9.030;2023-11-21T01:38:06;98087.22;;;10.26;72.62
68137;BME280;54939;50.826;9.030;2023-11-21T01:38:38;98090.88;;;10.25;72.74
68137;BME280;54939;50.826;9.030;2023-11-21T01:39:08;98089.88;;;10.26;72.77
68137;BME280;54939;50.826;9.030;2023-11-21T01:39:38;98087.22;;;10.26;72.71
68137;BME280;54939;50.826;9.030;2023-11-21T01:40:09;98092.53;;;10.26;72.54
68137;BME280;54939;50.826;9.030;2023-11-21T01:40:40;98087.22;;;10.26;72.63
68137;BME280;54939;50.826;9.030;2023-11-21T01:41:10;98089.72;;;10.27;72.50
68137;BME280;54939;50.826;9.030;2023-11-21T01:41:41;98091.53;;;10.27;72.46
68137;BME280;54939;50.826;9.030;2023-11-21T01:42:14;98092.53;;;10.26;72.45
68137;BME280;54939;50.826;9.030;2023-11-21T01:42:44;98094.38;;;10.25;72.51
68137;BME280;54939;50.826;9.030;2023-11-21T01:43:16;98087.22;;;10.26;72.53
68137;BME280;54939;50.826;9.030;2023-11-21T01:43:46;98089.88;;;10.26;72.78
68137;BME280;54939;50.826;9.030;2023-11-21T01:44:17;98086.38;;;10.25;72.61
68137;BME280;54939;50.826;9.030;2023-11-21T01:44:49;98087.22;;;10.26;72.67
68137;BME280;54939;50.826;9.030;2023-11-21T01:45:19;98085.53;;;10.25;72.73
68137;BME280;54939;50.826;9.030;2023-11-21T01:45:49;98092.53;;;10.26;72.70
68137;BME280;54939;50.826;9.030;2023-11-21T01:46:20;98088.03;;;10.26;72.72
68137;BME280;54939;50.826;9.030;2023-11-21T01:46:50;98091.53;;;10.27;72.51
68137;BME280;54939;50.826;9.030;2023-11-21T01:47:21;98094.22;;;10.27;72.64
68137;BME280;54939;50.826;9.030;2023-11-21T01:47:51;98094.22;;;10.27;72.55
68137;BME280;54939;50.826;9.030;2023-11-21T01:48:22;98088.88;;;10.27;72.47
68137;BME280;54939;50.826;9.030;2023-11-21T01:48:52;98094.22;;;10.27;72.55
68137;BME280;54939;50.826;9.030;2023-11-21T01:49:23;98094.22;;;10.27;72.53
68137;BME280;54939;50.826;9.030;2023-11-21T01:49:54;98100.38;;;10.27;72.65
68137;BME280;54939;50.826;9.030;2023-11-21T01:50:24;98088.03;;;10.26;72.66
68137;BME280;54939;50.826;9.030;2023-11-21T01:50:55;98093.38;;;10.26;72.62
68137;BME280;54939;50.826;9.030;2023-11-21T01:51:25;98092.69;;;10.24;72.77
68137;BME280;54939;50.826;9.030;2023-11-21T01:51:56;98097.88;;;10.26;72.39
68137;BME280;54939;50.826;9.030;2023-11-21T01:52:26;98093.53;;;10.25;72.63
68137;BME280;54939;50.826;9.030;2023-11-21T01:52:57;98096.03;;;10.26;72.76
68137;BME280;54939;50.826;9.030;2023-11-21T01:53:27;98092.53;;;10.26;72.51
68137;BME280;54939;50.826;9.030;2023-11-21T01:53:58;98095.22;;;10.26;72.75
68137;BME280;54939;50.826;9.030;2023-11-21T01:54:29;98103.22;;;10.26;72.52
68137;BME280;54939;50.826;9.030;2023-11-21T01:55:01;98097.03;;;10.25;72.64
68137;BME280;54939;50.826;9.030;2023-11-21T01:55:32;98109.38;;;10.26;72.67
68137;BME280;54939;50.826;9.030;2023-11-21T01:56:03;98097.88;;;10.26;72.52
68137;BME280;54939;50.826;9.030;2023-11-21T01:56:34;98102.22;;;10.27;72.74
68137;BME280;54939;50.826;9.030;2023-11-21T01:57:04;98097.88;;;10.26;72.62
68137;BME280;54939;50.826;9.030;2023-11-21T01:57:36;98096.88;;;10.27;72.46
68137;BME280;54939;50.826;9.030;2023-11-21T01:58:07;98100.38;;;10.27;72.48
68137;BME280;54939;50.826;9.030;2023-11-21T01:58:39;98102.22;;;10.27;72.55
68137;BME280;54939;50.826;9.030;2023-11-21T01:59:09;98097.88;;;10.26;72.66
68137;BME280;54939;50.826;9.030;2023-11-21T01:59:40;98098.72;;;10.26;72.52
68137;BME280;54939;50.826;9.030;2023-11-21T02:00:12;98098.72;;;10.26;72.45
68137;BME280;54939;50.826;9.030;2023-11-21T02:00:45;98099.56;;;10.27;72.62
68137;BME280;54939;50.826;9.030;2023-11-21T02:01:15;98097.03;;;10.25;72.54
68137;BME280;54939;50.826;9.030;2023-11-21T02:01:45;98101.38;;;10.26;72.66
68137;BME280;54939;50.826;9.030;2023-11-21T02:02:16;98100.53;;;10.26;72.54
68137;BME280;54939;50.826;9.030;2023-11-21T02:02:47;98099.72;;;10.25;72.56
68137;BME280;54939;50.826;9.030;2023-11-21T02:03:17;98101.53;;;10.25;72.54
68137;BME280;54939;50.826;9.030;2023-11-21T02:03:48;98102.38;;;10.25;72.65
68137;BME280;54939;50.826;9.030;2023-11-21T02:04:18;98104.06;;;10.26;72.62
68137;BME280;54939;50.826;9.030;2023-11-21T02:04:49;98107.56;;;10.27;72.52
68137;BME280;54939;50.826;9.030;2023-11-21T02:05:19;98097.88;;;10.26;72.53
68137;BME280;54939;50.826;9.030;2023-11-21T02:05:49;98096.03;;;10.26;72.49
68137;BME280;54939;50.826;9.030;2023-11-21T02:06:20;98096.88;;;10.27;72.54
68137;BME280;54939;50.826;9.030;2023-11-21T02:06:52;98104.06;;;10.26;72.52
68137;BME280;54939;50.826;9.030;2023-11-21T02:07:22;98097.88;;;10.26;72.37
68137;BME280;54939;50.826;9.030;2023-11-21T02:07:53;98100.53;;;10.26;72.62
68137;BME280;54939;50.826;9.030;2023-11-21T02:08:23;98101.38;;;10.26;72.53
68137;BME280;54939;50.826;9.030;2023-11-21T02:08:53;98096.03;;;10.26;72.44
68137;BME280;54939;50.826;9.030;2023-11-21T02:09:24;98101.38;;;10.26;72.63
68137;BME280;54939;50.826;9.030;2023-11-21T02:09:55;98095.22;;;10.26;72.43
68137;BME280;54939;50.826;9.030;2023-11-21T02:10:25;98100.53;;;10.26;72.49
68137;BME280;54939;50.826;9.030;2023-11-21T02:10:56;98103.22;;;10.26;72.57
68137;BME280;54939;50.826;9.030;2023-11-21T02:11:27;98102.38;;;10.25;72.58
68137;BME280;54939;50.826;9.030;2023-11-21T02:11:57;98099.72;;;10.25;72.49
68137;BME280;54939;50.826;9.030;2023-11-21T02:12:28;98100.53;;;10.26;72.58
68137;BME280;54939;50.826;9.030;2023-11-21T02:12:58;98106.72;;;10.26;72.43
68137;BME280;54939;50.826;9.030;2023-11-21T02:13:30;98104.06;;;10.26;72.74
68137;BME280;54939;50.826;9.030;2023-11-21T02:14:00;98105.88;;;10.26;72.46
68137;BME280;54939;50.826;9.030;2023-11-21T02:14:30;98105.88;;;10.26;72.48
68137;BME280;54939;50.826;9.030;2023-11-21T02:15:02;98110.38;;;10.25;72.71
68137;BME280;54939;50.826;9.030;2023-11-21T02:15:33;98099.56;;;10.27;72.71
68137;BME280;54939;50.826;9.030;2023-11-21T02:16:03;98113.88;;;10.26;72.43
68137;BME280;54939;50.826;9.030;2023-11-21T02:16:35;98105.88;;;10.26;72.73
68137;BME280;54939;50.826;9.030;2023-11-21T02:17:05;98113.88;;;10.26;72.58
68137;BME280;54939;50.826;9.030;2023-11-21T02:17:36;98110.38;;;10.25;72.45
68137;BME280;54939;50.826;9.030;2023-11-21T02:18:06;98111.22;;;10.26;72.44
68137;BME280;54939;50.826;9.030;2023-11-21T02:18:37;98106.88;;;10.25;72.66
68137;BME280;54939;50.826;9.030;2023-11-21T02:19:08;98108.53;;;10.26;72.53
68137;BME280;54939;50.826;9.030;2023-11-21T02:19:40;98115.56;;;10.27;72.39
68137;BME280;54939;50.826;9.030;2023-11-21T02:20:11;98104.22;;;10.25;72.58
68137;BME280;54939;50.826;9.030;2023-11-21T02:20:45;98111.22;;;10.26;72.38
68137;BME280;54939;50.826;9.030;2023-11-21T02:21:16;98108.72;;;10.24;72.39
68137;BME280;54939;50.826;9.030;2023-11-21T02:21:46;98108.53;;;10.26;72.62
68137;BME280;54939;50.826;9.030;2023-11-21T02:22:19;98111.22;;;10.26;72.49
68137;BME280;54939;50.826;9.030;2023-11-21T02:22:50;98112.06;;;10.26;72.40
68137;BME280;54939;50.826;9.030;2023-11-21T02:23:27;98105.88;;;10.26;72.42
68137;BME280;54939;50.826;9.030;2023-11-21T02:23:58;98112.06;;;10.26;72.42
68137;BME280;54939;50.826;9.030;2023-11-21T02:24:29;98109.53;;;10.25;72.43
68137;BME280;54939;50.826;9.030;2023-11-21T02:24:59;98098.88;;;10.25;72.39
68137;BME280;54939;50.826;9.030;2023-11-21T02:25:32;98103.22;;;10.26;72.56
68137;BME280;54939;50.826;9.030;2023-11-21T02:26:03;98108.53;;;10.26;72.52
68137;BME280;54939;50.826;9.030;2023-11-21T02:26:34;98110.38;;;10.25;72.46
68137;BME280;54939;50.826;9.030;2023-11-21T02:27:05;98105.88;;;10.26;72.56
68137;BME280;54939;50.826;9.030;2023-11-21T02:27:36;98100.72;;;10.24;72.58
68137;BME280;54939;50.826;9.030;2023-11-21T02:28:07;98100.72;;;10.24;72.44
68137;BME280;54939;50.826;9.030;2023-11-21T02:28:37;98100.72;;;10.24;72.41
68137;BME280;54939;50.826;9.030;2023-11-21T02:29:08;98094.53;;;10.24;72.54
68137;BME280;54939;50.826;9.030;2023-11-21T02:29:41;98101.53;;;10.25;72.50
68137;BME280;54939;50.826;9.030;2023-11-21T02:30:13;98106.03;;;10.24;72.43
68137;BME280;54939;50.826;9.030;2023-11-21T02:30:43;98109.53;;;10.25;72.50
68137;BME280;54939;50.826;9.030;2023-11-21T02:31:14;98106.03;;;10.24;72.55
68137;BME280;54939;50.826;9.030;2023-11-21T02:31:45;98101.53;;;10.25;72.60
68137;BME280;54939;50.826;9.030;2023-11-21T02:32:17;98108.53;;;10.26;72.71
68137;BME280;54939;50.826;9.030;2023-11-21T02:32:49;98108.53;;;10.26;72.52
68137;BME280;54939;50.826;9.030;2023-11-21T02:33:19;98104.22;;;10.25;72.52
68137;BME280;54939;50.826;9.030;2023-11-21T02:33:50;98105.88;;;10.26;72.59
68137;BME280;54939;50.826;9.030;2023-11-21T02:34:21;98105.22;;;10.24;72.55
68137;BME280;54939;50.826;9.030;2023-11-21T02:34:51;98101.53;;;10.25;72.54
68137;BME280;54939;50.826;9.030;2023-11-21T02:35:21;98103.38;;;10.24;72.76
68137;BME280;54939;50.826;9.030;2023-11-21T02:35:51;98101.53;;;10.25;72.45
68137;BME280;54939;50.826;9.030;2023-11-21T02:36:24;98102.38;;;10.25;72.60
68137;BME280;54939;50.826;9.030;2023-11-21T02:36:55;98105.88;;;10.26;72.82
68137;BME280;54939;50.826;9.030;2023-11-21T02:37:27;98103.06;;;10.27;72.86
68137;BME280;54939;50.826;9.030;2023-11-21T02:37:57;98105.72;;;10.27;72.83
68137;BME280;54939;50.826;9.030;2023-11-21T02:38:27;98104.88;;;10.27;72.79
68137;BME280;54939;50.826;9.030;2023-11-21T02:38:58;98105.03;;;10.25;72.63
68137;BME280;54939;50.826;9.030;2023-11-21T02:39:28;98104.22;;;10.25;72.58
68137;BME280;54939;50.826;9.030;2023-11-21T02:39:58;98105.03;;;10.25;72.57
68137;BME280;54939;50.826;9.030;2023-11-21T02:40:29;98098.03;;;10.24;72.53
68137;BME280;54939;50.826;9.030;2023-11-21T02:40:59;98098.88;;;10.25;72.50
68137;BME280;54939;50.826;9.030;2023-11-21T02:41:29;98104.22;;;10.25;72.51
68137;BME280;54939;50.826;9.030;2023-11-21T02:42:00;98106.03;;;10.24;72.47
68137;BME280;54939;50.826;9.030;2023-11-21T02:42:30;98105.88;;;10.26;72.57